createdAt,value
2023-04-17T00:01:01.520Z,12.39
2023-04-17T00:03:28.131Z,12.29
2023-04-17T00:05:54.691Z,12.30
2023-04-17T00:08:21.175Z,12.29
2023-04-17T00:10:54.018Z,12.36
2023-04-17T00:13:31.070Z,12.30
2023-04-17T00:15:57.655Z,12.37
2023-04-17T00:18:24.143Z,12.34
2023-04-17T00:20:50.645Z,12.31
2023-04-17T00:23:17.162Z,12.29
2023-04-17T00:25:43.680Z,12.27
2023-04-17T00:28:10.233Z,12.18
2023-04-17T00:30:36.715Z,12.15
2023-04-17T00:33:03.262Z,12.11
2023-04-17T00:35:29.783Z,12.11
2023-04-17T00:37:56.243Z,12.15
2023-04-17T00:40:22.719Z,12.21
2023-04-17T00:42:49.623Z,12.20
2023-04-17T00:45:16.134Z,12.22
2023-04-17T00:47:42.694Z,12.18
2023-04-17T00:50:09.934Z,12.12
2023-04-17T00:52:36.296Z,12.08
2023-04-17T00:55:02.716Z,12.12
2023-04-17T00:57:29.101Z,12.06
2023-04-17T00:59:56.647Z,12.10
2023-04-17T01:02:23.791Z,12.11
2023-04-17T01:04:50.418Z,12.14
2023-04-17T01:07:16.921Z,12.18
2023-04-17T01:09:43.458Z,12.21
2023-04-17T01:12:20.873Z,12.24
2023-04-17T01:14:49.685Z,12.18
2023-04-17T01:17:16.149Z,12.15
2023-04-17T01:19:42.661Z,12.08
2023-04-17T01:22:09.169Z,12.07
2023-04-17T01:24:36.069Z,12.06
2023-04-17T01:27:03.392Z,12.10
2023-04-17T01:29:30.446Z,12.11
2023-04-17T01:31:56.906Z,12.12
2023-04-17T01:34:23.447Z,12.08
2023-04-17T01:36:49.958Z,12.13
2023-04-17T01:39:16.701Z,12.15
2023-04-17T01:41:43.306Z,12.17
2023-04-17T01:44:09.791Z,12.16
2023-04-17T01:46:36.328Z,12.13
2023-04-17T01:49:02.894Z,12.15
2023-04-17T01:51:29.380Z,12.14
2023-04-17T01:53:55.886Z,12.16
2023-04-17T01:56:22.522Z,12.15
2023-04-17T01:58:48.990Z,12.17
2023-04-17T02:01:15.504Z,12.13
2023-04-17T02:03:42.185Z,12.07
2023-04-17T02:06:08.908Z,12.05
2023-04-17T02:08:35.463Z,12.03
2023-04-17T02:11:02.084Z,12.11
2023-04-17T02:13:28.636Z,12.11
2023-04-17T02:15:55.189Z,12.13
2023-04-17T02:18:21.764Z,12.07
2023-04-17T02:20:48.239Z,12.01
2023-04-17T02:23:14.728Z,12.01
2023-04-17T02:25:41.368Z,12.00
2023-04-17T02:28:07.833Z,11.91
2023-04-17T02:30:34.335Z,11.88
2023-04-17T02:33:01.035Z,11.86
2023-04-17T02:35:30.217Z,11.80
2023-04-17T02:37:56.758Z,11.83
2023-04-17T02:40:23.489Z,11.81
2023-04-17T02:42:49.984Z,11.82
2023-04-17T02:45:16.526Z,11.86
2023-04-17T02:47:43.251Z,11.88
2023-04-17T02:50:10.478Z,11.86
2023-04-17T02:52:36.991Z,11.77
2023-04-17T02:55:03.802Z,11.76
2023-04-17T02:57:30.277Z,11.75
2023-04-17T02:59:56.763Z,11.73
2023-04-17T03:02:23.415Z,11.75
2023-04-17T03:04:51.124Z,11.71
2023-04-17T03:07:18.892Z,11.68
2023-04-17T03:09:48.620Z,11.67
2023-04-17T03:12:16.380Z,11.72
2023-04-17T03:14:43.763Z,11.67
2023-04-17T03:17:11.366Z,11.65
2023-04-17T03:19:37.950Z,11.65
2023-04-17T03:22:04.695Z,11.59
2023-04-17T03:24:31.369Z,11.57
2023-04-17T03:26:59.077Z,11.55
2023-04-17T03:29:25.688Z,11.58
2023-04-17T03:31:52.446Z,11.57
2023-04-17T03:34:20.649Z,11.60
2023-04-17T03:36:47.598Z,11.56
2023-04-17T03:39:14.246Z,11.56
2023-04-17T03:41:40.980Z,11.53
2023-04-17T03:44:07.520Z,11.49
2023-04-17T03:46:34.105Z,11.45
2023-04-17T03:49:00.587Z,11.40
2023-04-17T03:51:27.342Z,11.36
2023-04-17T03:53:53.859Z,11.36
2023-04-17T03:56:20.347Z,11.37
2023-04-17T03:58:46.856Z,11.34
2023-04-17T04:01:13.471Z,11.33
2023-04-17T04:03:40.480Z,11.29
2023-04-17T04:06:07.261Z,11.32
2023-04-17T04:08:33.899Z,11.28
2023-04-17T04:11:00.442Z,11.28
2023-04-17T04:13:27.297Z,11.25
2023-04-17T04:15:53.879Z,11.28
2023-04-17T04:18:20.470Z,11.33
2023-04-17T04:20:46.999Z,11.31
2023-04-17T04:23:13.484Z,11.33
2023-04-17T04:25:40.064Z,11.33
2023-04-17T04:28:06.549Z,11.32
2023-04-17T04:30:33.306Z,11.30
2023-04-17T04:32:59.805Z,11.31
2023-04-17T04:35:26.309Z,11.24
2023-04-17T04:37:52.808Z,11.30
2023-04-17T04:40:19.325Z,11.31
2023-04-17T04:42:45.796Z,11.33
2023-04-17T04:45:12.309Z,11.34
2023-04-17T04:47:38.856Z,11.31
2023-04-17T04:50:05.830Z,11.29
2023-04-17T04:52:32.359Z,11.31
2023-04-17T04:54:58.824Z,11.31
2023-04-17T04:57:25.419Z,11.30
2023-04-17T04:59:51.966Z,11.27
2023-04-17T05:02:18.796Z,11.27
2023-04-17T05:04:45.393Z,11.26
2023-04-17T05:07:11.965Z,11.26
2023-04-17T05:09:38.442Z,11.29
2023-04-17T05:12:05.111Z,11.27
2023-04-17T05:14:31.661Z,11.32
2023-04-17T05:16:58.174Z,11.32
2023-04-17T05:19:24.719Z,11.38
2023-04-17T05:21:51.234Z,11.37
2023-04-17T05:24:17.754Z,11.41
2023-04-17T05:26:44.244Z,11.43
2023-04-17T05:29:10.898Z,11.53
2023-04-17T05:31:37.691Z,11.47
2023-04-17T05:34:04.255Z,11.51
2023-04-17T05:36:30.784Z,11.55
2023-04-17T05:38:57.271Z,11.50
2023-04-17T05:41:23.738Z,11.53
2023-04-17T05:43:50.274Z,11.46
2023-04-17T05:46:16.772Z,11.43
2023-04-17T05:48:43.295Z,11.43
2023-04-17T05:51:09.790Z,11.33
2023-04-17T05:53:36.305Z,11.36
2023-04-17T05:56:02.809Z,11.35
2023-04-17T05:58:29.342Z,11.40
2023-04-17T06:00:56.839Z,11.37
2023-04-17T06:03:23.668Z,11.33
2023-04-17T06:05:50.619Z,11.31
2023-04-17T06:08:17.258Z,11.23
2023-04-17T06:10:43.794Z,11.24
2023-04-17T06:13:10.320Z,11.29
2023-04-17T06:15:36.803Z,11.25
2023-04-17T06:18:03.329Z,11.23
2023-04-17T06:20:29.939Z,11.19
2023-04-17T06:22:56.517Z,11.23
2023-04-17T06:25:23.103Z,11.22
2023-04-17T06:27:49.624Z,11.21
2023-04-17T06:30:16.193Z,11.23
2023-04-17T06:32:43.720Z,11.24
2023-04-17T06:35:13.203Z,11.25
2023-04-17T06:37:39.718Z,11.28
2023-04-17T06:40:06.912Z,11.28
2023-04-17T06:42:33.460Z,11.25
2023-04-17T06:44:59.976Z,11.26
2023-04-17T06:47:26.545Z,11.26
2023-04-17T06:49:53.080Z,11.22
2023-04-17T06:52:19.644Z,11.23
2023-04-17T06:54:46.109Z,11.25
2023-04-17T06:57:12.578Z,11.25
2023-04-17T06:59:39.069Z,11.28
2023-04-17T07:02:05.744Z,11.26
2023-04-17T07:04:32.365Z,11.24
2023-04-17T07:06:58.874Z,11.26
2023-04-17T07:09:25.371Z,11.33
2023-04-17T07:11:51.871Z,11.29
2023-04-17T07:14:18.337Z,11.31
2023-04-17T07:16:44.883Z,11.30
2023-04-17T07:19:11.595Z,11.32
2023-04-17T07:21:38.244Z,11.36
2023-04-17T07:24:04.864Z,11.36
2023-04-17T07:26:31.401Z,11.38
2023-04-17T07:28:57.918Z,11.29
2023-04-17T07:31:24.421Z,11.27
2023-04-17T07:33:51.005Z,11.36
2023-04-17T07:36:17.508Z,11.29
2023-04-17T07:38:44.030Z,11.30
2023-04-17T07:41:10.518Z,11.28
2023-04-17T07:43:36.997Z,11.32
2023-04-17T07:46:03.532Z,11.33
2023-04-17T07:48:30.067Z,11.36
2023-04-17T07:50:59.745Z,11.37
2023-04-17T07:53:26.276Z,11.30
2023-04-17T07:55:52.806Z,11.28
2023-04-17T07:58:19.304Z,11.25
2023-04-17T08:00:45.798Z,11.20
2023-04-17T08:03:12.505Z,11.16
2023-04-17T08:05:39.170Z,11.15
2023-04-17T08:08:05.838Z,11.19
2023-04-17T08:10:32.414Z,11.25
2023-04-17T08:13:00.006Z,11.26
2023-04-17T08:15:26.491Z,11.31
2023-04-17T08:17:53.152Z,11.34
2023-04-17T08:20:19.839Z,11.36
2023-04-17T08:22:46.461Z,11.30
2023-04-17T08:25:13.696Z,11.31
2023-04-17T08:27:41.781Z,11.29
2023-04-17T08:30:13.044Z,11.30
2023-04-17T08:32:45.924Z,11.32
2023-04-17T08:35:13.706Z,11.32
2023-04-17T08:37:41.251Z,11.30
2023-04-17T08:40:09.098Z,11.35
2023-04-17T08:42:37.186Z,11.34
2023-04-17T08:45:09.161Z,11.35
2023-04-17T08:47:36.555Z,11.34
2023-04-17T08:50:11.550Z,11.44
2023-04-17T08:52:42.323Z,11.45
2023-04-17T08:55:11.162Z,11.46
2023-04-17T08:57:56.722Z,11.48
2023-04-17T09:00:33.810Z,11.50
2023-04-17T09:03:02.252Z,11.49
2023-04-17T09:05:29.822Z,11.44
2023-04-17T09:08:13.020Z,11.43
2023-04-17T09:10:44.980Z,11.48
2023-04-17T09:13:35.064Z,11.44
2023-04-17T09:16:05.936Z,11.55
2023-04-17T09:18:33.581Z,11.61
2023-04-17T09:21:01.637Z,11.59
2023-04-17T09:23:30.545Z,11.57
2023-04-17T09:26:12.012Z,11.67
2023-04-17T09:28:39.380Z,11.72
2023-04-17T09:31:23.435Z,11.78
2023-04-17T09:34:08.072Z,11.63
2023-04-17T09:36:36.279Z,11.56
2023-04-17T09:39:16.335Z,11.48
2023-04-17T09:41:42.753Z,11.44
2023-04-17T09:44:09.229Z,11.43
2023-04-17T09:46:36.893Z,11.47
2023-04-17T09:49:16.953Z,11.50
2023-04-17T09:51:45.441Z,11.54
2023-04-17T09:54:14.589Z,11.59
2023-04-17T09:56:41.424Z,11.63
2023-04-17T09:59:08.479Z,11.57
2023-04-17T10:01:36.973Z,11.60
2023-04-17T10:04:05.231Z,11.61
2023-04-17T10:06:33.268Z,11.57
2023-04-17T10:08:59.928Z,11.60
2023-04-17T10:11:34.177Z,11.66
2023-04-17T10:14:30.671Z,11.63
2023-04-17T10:16:57.343Z,11.64
2023-04-17T10:19:30.303Z,11.69
2023-04-17T10:22:18.306Z,11.70
2023-04-17T10:24:49.734Z,11.65
2023-04-17T10:27:25.101Z,11.71
2023-04-17T10:29:52.174Z,11.67
2023-04-17T10:32:18.712Z,11.62
2023-04-17T10:34:45.616Z,11.60
2023-04-17T10:37:13.242Z,11.64
2023-04-17T10:40:01.472Z,11.72
2023-04-17T10:42:30.826Z,11.79
2023-04-17T10:44:59.424Z,11.87
2023-04-17T10:47:35.571Z,12.09
2023-04-17T10:50:04.336Z,12.26
2023-04-17T10:52:33.798Z,12.26
2023-04-17T10:55:10.534Z,12.28
2023-04-17T10:58:11.868Z,12.48
2023-04-17T11:00:49.592Z,12.55
2023-04-17T11:03:16.982Z,12.70
2023-04-17T11:05:47.012Z,12.90
2023-04-17T11:08:14.041Z,12.90
2023-04-17T11:10:40.626Z,12.64
2023-04-17T11:13:07.126Z,12.76
2023-04-17T11:15:35.163Z,12.87
2023-04-17T11:18:02.889Z,12.71
2023-04-17T11:20:32.271Z,12.67
2023-04-17T11:23:03.154Z,12.76
2023-04-17T11:25:31.707Z,12.83
2023-04-17T11:27:59.622Z,13.13
2023-04-17T11:30:39.592Z,13.21
2023-04-17T11:33:06.973Z,13.44
2023-04-17T11:35:39.338Z,13.27
2023-04-17T11:38:18.554Z,13.23
2023-04-17T11:40:54.121Z,13.05
2023-04-17T11:43:22.185Z,13.12
2023-04-17T11:45:51.385Z,13.00
2023-04-17T11:48:21.603Z,13.05
2023-04-17T11:50:48.662Z,12.84
2023-04-17T11:53:17.081Z,12.75
2023-04-17T11:55:44.957Z,12.63
2023-04-17T11:58:13.335Z,12.62
2023-04-17T12:00:40.687Z,12.74
2023-04-17T12:03:35.904Z,12.85
2023-04-17T12:06:04.953Z,12.76
2023-04-17T12:08:31.679Z,12.62
2023-04-17T12:10:58.590Z,12.56
2023-04-17T12:13:25.285Z,12.44
2023-04-17T12:15:51.838Z,12.43
2023-04-17T12:18:18.363Z,12.50
2023-04-17T12:20:44.859Z,12.67
2023-04-17T12:23:11.383Z,12.65
2023-04-17T12:25:37.933Z,12.53
2023-04-17T12:28:04.572Z,12.54
2023-04-17T12:30:31.340Z,12.50
2023-04-17T12:32:57.882Z,12.50
2023-04-17T12:35:24.468Z,12.60
2023-04-17T12:37:51.204Z,12.44
2023-04-17T12:40:21.354Z,12.30
2023-04-17T12:42:49.924Z,12.40
2023-04-17T12:45:17.256Z,12.33
2023-04-17T12:47:44.267Z,12.18
2023-04-17T12:50:11.753Z,12.23
2023-04-17T12:52:39.266Z,12.26
2023-04-17T12:55:06.627Z,12.29
2023-04-17T12:57:34.169Z,12.33
2023-04-17T13:00:01.029Z,12.24
2023-04-17T13:02:27.844Z,12.23
2023-04-17T13:04:54.674Z,12.22
2023-04-17T13:07:21.212Z,12.31
2023-04-17T13:09:47.903Z,12.36
2023-04-17T13:12:14.460Z,12.23
2023-04-17T13:14:41.742Z,12.31
2023-04-17T13:17:08.302Z,12.32
2023-04-17T13:19:35.367Z,12.32
2023-04-17T13:22:02.256Z,12.41
2023-04-17T13:24:28.780Z,12.29
2023-04-17T13:26:56.272Z,12.26
2023-04-17T13:29:22.737Z,12.33
2023-04-17T13:31:49.242Z,12.36
2023-04-17T13:34:15.755Z,12.37
2023-04-17T13:36:42.302Z,12.44
2023-04-17T13:39:08.859Z,12.52
2023-04-17T13:41:36.625Z,12.63
2023-04-17T13:44:03.545Z,12.72
2023-04-17T13:46:30.674Z,12.85
2023-04-17T13:48:57.160Z,12.90
2023-04-17T13:51:23.665Z,12.93
2023-04-17T13:53:50.133Z,13.03
2023-04-17T13:56:16.644Z,13.03
2023-04-17T13:58:43.144Z,12.98
2023-04-17T14:01:09.821Z,12.99
2023-04-17T14:03:39.014Z,13.08
2023-04-17T14:06:06.909Z,13.14
2023-04-17T14:08:33.521Z,13.16
2023-04-17T14:11:00.051Z,13.17
2023-04-17T14:13:26.586Z,13.10
2023-04-17T14:15:53.209Z,13.07
2023-04-17T14:18:19.881Z,13.08
2023-04-17T14:20:46.767Z,12.99
2023-04-17T14:23:13.545Z,12.98
2023-04-17T14:25:40.065Z,12.93
2023-04-17T14:28:06.582Z,12.94
2023-04-17T14:30:33.148Z,13.04
2023-04-17T14:32:59.689Z,13.04
2023-04-17T14:35:26.222Z,13.07
2023-04-17T14:37:52.837Z,13.16
2023-04-17T14:40:19.312Z,13.19
2023-04-17T14:42:54.157Z,13.25
2023-04-17T14:45:21.272Z,13.14
2023-04-17T14:47:47.818Z,13.16
2023-04-17T14:50:14.330Z,13.21
2023-04-17T14:52:40.898Z,13.22
2023-04-17T14:55:07.776Z,13.23
2023-04-17T14:57:34.462Z,13.25
2023-04-17T15:00:01.032Z,13.22
2023-04-17T15:02:27.704Z,13.16
2023-04-17T15:04:55.001Z,13.12
2023-04-17T15:07:21.433Z,13.08
2023-04-17T15:09:47.920Z,13.11
2023-04-17T15:12:14.651Z,13.11
2023-04-17T15:14:41.213Z,13.18
2023-04-17T15:17:07.720Z,13.11
2023-04-17T15:19:34.226Z,13.09
2023-04-17T15:22:00.787Z,12.98
2023-04-17T15:24:27.283Z,13.02
2023-04-17T15:26:53.776Z,13.03
2023-04-17T15:29:20.275Z,13.02
2023-04-17T15:31:46.764Z,12.97
2023-04-17T15:34:13.308Z,12.96
2023-04-17T15:36:41.328Z,12.96
2023-04-17T15:39:07.811Z,12.94
2023-04-17T15:41:34.311Z,12.85
2023-04-17T15:44:00.808Z,12.85
2023-04-17T15:46:27.413Z,12.81
2023-04-17T15:51:27.606Z,12.73
2023-04-17T15:53:54.178Z,12.64
2023-04-17T15:56:20.646Z,12.38
2023-04-17T15:58:47.262Z,12.17
2023-04-17T16:01:13.776Z,12.08
2023-04-17T16:03:40.413Z,12.01
2023-04-17T16:06:07.054Z,11.98
2023-04-17T16:08:33.552Z,11.97
2023-04-17T16:11:00.032Z,12.01
2023-04-17T16:13:27.762Z,11.96
2023-04-17T16:15:54.265Z,11.95
2023-04-17T16:18:20.782Z,11.93
2023-04-17T16:20:47.572Z,11.89
2023-04-17T16:23:14.094Z,11.84
2023-04-17T16:25:40.572Z,11.80
2023-04-17T16:28:07.098Z,11.79
2023-04-17T16:30:33.568Z,11.76
2023-04-17T16:33:00.161Z,11.71
2023-04-17T16:35:26.848Z,11.71
2023-04-17T16:37:53.360Z,11.65
2023-04-17T16:40:19.880Z,11.64
2023-04-17T16:42:46.481Z,11.62
2023-04-17T16:45:13.134Z,11.51
2023-04-17T16:47:39.814Z,11.40
2023-04-17T16:50:08.750Z,11.35
2023-04-17T16:52:38.681Z,11.31
2023-04-17T16:55:07.202Z,11.29
2023-04-17T16:57:34.848Z,11.28
2023-04-17T17:00:01.322Z,11.26
2023-04-17T17:02:27.909Z,11.27
2023-04-17T17:04:54.472Z,11.23
2023-04-17T17:07:21.021Z,11.23
2023-04-17T17:09:47.580Z,11.20
2023-04-17T17:12:14.061Z,11.17
2023-04-17T17:14:40.717Z,11.14
2023-04-17T17:17:07.228Z,11.13
2023-04-17T17:19:33.698Z,11.12
2023-04-17T17:22:00.240Z,11.08
2023-04-17T17:24:26.748Z,11.06
2023-04-17T17:26:53.247Z,11.07
2023-04-17T17:29:19.758Z,11.03
2023-04-17T17:31:46.396Z,11.05
2023-04-17T17:36:42.331Z,11.04
2023-04-17T17:39:08.868Z,11.02
2023-04-17T17:41:35.351Z,10.98
2023-04-17T17:44:01.871Z,10.96
2023-04-17T17:46:28.550Z,10.89
2023-04-17T17:48:55.102Z,10.88
2023-04-17T17:51:21.624Z,10.84
2023-04-17T17:53:48.112Z,10.82
2023-04-17T17:56:15.740Z,10.78
2023-04-17T17:58:42.368Z,10.79
2023-04-17T18:01:09.004Z,10.76
2023-04-17T18:03:35.619Z,10.73
2023-04-17T18:06:02.144Z,10.69
2023-04-17T18:08:28.645Z,10.67
2023-04-17T18:10:55.167Z,10.72
2023-04-17T18:13:21.695Z,10.72
2023-04-17T18:15:48.291Z,10.67
2023-04-17T18:18:14.775Z,10.62
2023-04-17T18:20:41.288Z,10.60
2023-04-17T18:23:07.781Z,10.59
2023-04-17T18:25:34.261Z,10.58
2023-04-17T18:28:00.767Z,10.60
2023-04-17T18:30:27.373Z,10.58
2023-04-17T18:32:53.855Z,10.57
2023-04-17T18:35:20.384Z,10.58
2023-04-17T18:37:46.893Z,10.55
2023-04-17T18:40:13.558Z,10.55
2023-04-17T18:42:40.074Z,10.54
2023-04-17T18:45:07.088Z,10.54
2023-04-17T18:47:33.613Z,10.53
2023-04-17T18:50:00.157Z,10.51
2023-04-17T18:52:26.665Z,10.52
2023-04-17T18:54:53.236Z,10.52
2023-04-17T18:57:19.718Z,10.52
2023-04-17T18:59:47.510Z,10.50
2023-04-17T19:02:14.033Z,10.48
2023-04-17T19:04:40.614Z,10.48
2023-04-17T19:07:07.113Z,10.44
2023-04-17T19:09:33.617Z,10.44
2023-04-17T19:12:00.135Z,10.40
2023-04-17T19:14:26.693Z,10.37
2023-04-17T19:16:53.314Z,10.36
2023-04-17T19:19:19.931Z,10.37
2023-04-17T19:21:46.426Z,10.38
2023-04-17T19:24:14.509Z,10.37
2023-04-17T19:26:41.335Z,10.35
2023-04-17T19:29:07.922Z,10.32
2023-04-17T19:31:34.543Z,10.30
2023-04-17T19:34:01.098Z,10.27
2023-04-17T19:36:27.699Z,10.29
2023-04-17T19:38:55.342Z,10.28
2023-04-17T19:41:21.822Z,10.30
2023-04-17T19:43:49.821Z,10.31
2023-04-17T19:46:17.522Z,10.25
2023-04-17T19:48:45.325Z,10.26
2023-04-17T19:51:13.359Z,10.26
2023-04-17T19:53:41.117Z,10.24
2023-04-17T19:56:08.805Z,10.24
2023-04-17T19:58:36.035Z,10.22
2023-04-17T20:01:02.869Z,10.21
2023-04-17T20:03:30.553Z,10.17
2023-04-17T20:05:58.259Z,10.20
2023-04-17T20:08:25.612Z,10.20
2023-04-17T20:10:52.123Z,10.17
2023-04-17T20:13:18.732Z,10.20
2023-04-17T20:15:45.426Z,10.17
2023-04-17T20:18:13.166Z,10.18
2023-04-17T20:20:39.772Z,10.16
2023-04-17T20:23:06.336Z,10.16
2023-04-17T20:25:33.089Z,10.16
2023-04-17T20:27:59.677Z,10.15
2023-04-17T20:30:26.279Z,10.16
2023-04-17T20:32:53.965Z,10.15
2023-04-17T20:35:20.645Z,10.14
2023-04-17T20:37:47.173Z,10.14
2023-04-17T20:40:13.817Z,10.14
2023-04-17T20:42:42.095Z,10.13
2023-04-17T20:45:09.602Z,10.16
2023-04-17T20:47:37.493Z,10.20
2023-04-17T20:50:07.711Z,10.17
2023-04-17T20:52:34.503Z,10.15
2023-04-17T20:55:01.127Z,10.16
2023-04-17T20:57:30.945Z,10.16
2023-04-17T20:59:57.406Z,10.16
2023-04-17T21:02:24.130Z,10.17
2023-04-17T21:04:50.957Z,10.16
2023-04-17T21:07:17.617Z,10.18
2023-04-17T21:09:44.090Z,10.15
2023-04-17T21:12:10.600Z,10.16
2023-04-17T21:14:37.243Z,10.15
2023-04-17T21:17:03.738Z,10.17
2023-04-17T21:19:30.239Z,10.14
2023-04-17T21:21:59.494Z,10.14
2023-04-17T21:24:25.982Z,10.13
2023-04-17T21:26:52.546Z,10.13
2023-04-17T21:29:19.008Z,10.14
2023-04-17T21:31:45.606Z,10.09
2023-04-17T21:34:12.632Z,10.14
2023-04-17T21:36:39.350Z,10.11
2023-04-17T21:39:05.870Z,10.15
2023-04-17T21:41:32.439Z,10.18
2023-04-17T21:43:58.922Z,10.20
2023-04-17T21:46:25.474Z,10.23
2023-04-17T21:48:52.023Z,10.20
2023-04-17T21:51:18.534Z,10.21
2023-04-17T21:53:45.032Z,10.25
2023-04-17T21:56:11.523Z,10.25
2023-04-17T21:58:38.097Z,10.23
2023-04-17T22:01:04.785Z,10.15
2023-04-17T22:03:31.348Z,10.11
2023-04-17T22:05:57.906Z,10.08
2023-04-17T22:08:24.502Z,10.12
2023-04-17T22:10:52.331Z,10.11
2023-04-17T22:13:18.826Z,10.08
2023-04-17T22:15:47.349Z,10.02
2023-04-17T22:18:13.871Z,10.06
2023-04-17T22:20:40.360Z,10.06
2023-04-17T22:23:07.272Z,10.06
2023-04-17T22:25:33.792Z,10.07
2023-04-17T22:28:00.288Z,10.09
2023-04-17T22:30:26.789Z,10.08
2023-04-17T22:32:53.326Z,10.13
2023-04-17T22:35:19.845Z,10.18
2023-04-17T22:37:46.351Z,10.18
2023-04-17T22:40:13.178Z,10.13
2023-04-17T22:42:39.660Z,10.16
2023-04-17T22:45:06.533Z,10.15
2023-04-17T22:47:33.143Z,10.15
2023-04-17T22:49:59.677Z,10.12
2023-04-17T22:52:26.172Z,10.19
2023-04-17T22:54:53.330Z,10.25
2023-04-17T22:57:19.806Z,10.24
2023-04-17T22:59:46.336Z,10.26
2023-04-17T23:02:12.910Z,10.26
2023-04-17T23:04:39.465Z,10.28
2023-04-17T23:07:05.960Z,10.32
2023-04-17T23:09:32.509Z,10.34
2023-04-17T23:14:43.098Z,10.30
2023-04-17T23:17:09.657Z,10.35
2023-04-17T23:19:36.217Z,10.36
2023-04-17T23:22:02.986Z,10.27
2023-04-17T23:24:32.720Z,10.20
2023-04-17T23:26:59.203Z,10.21
2023-04-17T23:29:25.758Z,10.24
2023-04-17T23:31:52.316Z,10.24
2023-04-17T23:34:18.879Z,10.27
2023-04-17T23:36:45.470Z,10.29
2023-04-17T23:39:11.953Z,10.28
2023-04-17T23:41:38.510Z,10.28
2023-04-17T23:44:05.200Z,10.31
2023-04-17T23:46:31.723Z,10.31
2023-04-17T23:48:58.256Z,10.27
2023-04-17T23:51:24.807Z,10.23
2023-04-17T23:53:51.310Z,10.15
2023-04-17T23:56:17.784Z,10.14
2023-04-17T23:58:44.294Z,10.17
